Time;durP1;ratioP1;P1;durP2;ratioP2;P2;SDS_P1;SDS_P2;PMS_P1;PMS_P2;Temp;Humidity;BMP_temperature;BMP_pressure;BME280_temperature;BME280_humidity;BME280_pressure;Samples;Min_cycle;Max_cycle;Signal;HPM_P1;HPM_P2
2024/02/03 00:00:55;;;;;;;;;;;;;;;5.07;70.45;99040.98;109010;1256;60268;-68
2024/02/03 00:03:23;;;;;;;;;;;;;;;4.99;70.50;99040.88;109192;1256;74800;-69
2024/02/03 00:05:50;;;;;;;;;;;;;;;5.02;70.28;99039.15;109180;1257;71040;-68
2024/02/03 00:08:18;;;;;;;;;;;;;;;5.04;70.11;99031.88;109211;1255;71665;-68
2024/02/03 00:10:49;;;;;;;;;;;;;;;5.00;70.26;99019.54;109367;1254;61361;-68
2024/02/03 00:13:16;;;;;;;;;;;;;;;5.00;70.61;99014.05;109397;1254;60870;-67
2024/02/03 00:15:44;;;;;;;;;;;;;;;4.94;70.86;99009.94;109327;1254;74622;-69
2024/02/03 00:18:11;;;;;;;;;;;;;;;4.92;71.96;99006.91;109531;1251;70175;-67
2024/02/03 00:20:39;;;;;;;;;;;;;;;4.90;72.74;99002.28;109612;1251;73762;-68
2024/02/03 00:23:07;;;;;;;;;;;;;;;4.75;73.96;98993.24;109574;1251;60810;-66
2024/02/03 00:25:34;;;;;;;;;;;;;;;4.78;74.49;98994.16;109364;1256;59400;-69
2024/02/03 00:28:03;;;;;;;;;;;;;;;4.74;75.30;98984.41;109665;1251;75474;-68
2024/02/03 00:30:31;;;;;;;;;;;;;;;4.86;75.46;98980.21;109633;1251;71103;-67
2024/02/03 00:32:58;;;;;;;;;;;;;;;4.92;75.22;98976.84;109218;1254;72524;-67
2024/02/03 00:35:26;;;;;;;;;;;;;;;4.78;76.54;98976.90;109378;1255;63067;-68
2024/02/03 00:37:53;;;;;;;;;;;;;;;4.80;76.52;98983.02;109443;1253;59476;-68
2024/02/03 00:40:21;;;;;;;;;;;;;;;4.98;75.91;98987.74;109442;1254;74807;-68
2024/02/03 00:42:50;;;;;;;;;;;;;;;4.80;77.37;98986.48;109405;1254;69250;-68
2024/02/03 00:45:17;;;;;;;;;;;;;;;4.83;77.50;98980.84;109317;1254;74029;-68
2024/02/03 00:47:45;;;;;;;;;;;;;;;4.77;78.06;98979.27;109392;1256;59009;-68
2024/02/03 00:50:14;;;;;;;;;;;;;;;4.77;77.73;98971.90;109344;1254;59425;-67
2024/02/03 00:52:42;;;;;;;;;;;;;;;4.64;78.66;98969.23;109301;1254;73363;-68
2024/02/03 00:55:10;;;;;;;;;;;;;;;4.53;79.36;98961.69;109343;1254;69272;-67
2024/02/03 00:57:37;;;;;;;;;;;;;;;4.61;78.60;98945.89;109170;1254;75051;-67
2024/02/03 01:00:06;;;;;;;;;;;;;;;4.58;78.69;98932.09;109062;1256;60225;-69
2024/02/03 01:02:34;;;;;;;;;;;;;;;4.45;79.46;98924.77;109320;1254;61305;-67
2024/02/03 01:05:01;;;;;;;;;;;;;;;4.73;77.87;98910.35;109543;1253;74944;-67
2024/02/03 01:07:29;;;;;;;;;;;;;;;4.71;77.61;98904.95;109637;1253;68133;-68
2024/02/03 01:09:56;;;;;;;;;;;;;;;4.81;76.85;98897.77;109650;1252;71739;-69
2024/02/03 01:12:24;;;;;;;;;;;;;;;4.78;76.47;98885.86;109556;1253;60855;-69
2024/02/03 01:14:52;;;;;;;;;;;;;;;4.92;75.63;98872.92;109223;1253;61083;-67
2024/02/03 01:17:19;;;;;;;;;;;;;;;4.71;76.24;98875.13;109609;1252;76482;-68
2024/02/03 01:19:47;;;;;;;;;;;;;;;4.75;76.10;98874.86;109595;1253;68569;-68
2024/02/03 01:22:15;;;;;;;;;;;;;;;4.83;75.44;98876.55;109585;1253;74913;-67
2024/02/03 01:24:42;;;;;;;;;;;;;;;4.91;74.87;98875.35;109582;1253;59941;-67
2024/02/03 01:27:10;;;;;;;;;;;;;;;4.84;74.70;98860.47;109323;1254;59085;-67
2024/02/03 01:29:38;;;;;;;;;;;;;;;4.89;74.51;98856.16;109648;1252;76934;-68
2024/02/03 01:32:06;;;;;;;;;;;;;;;4.95;74.34;98851.29;109344;1254;69226;-68
2024/02/03 01:34:34;;;;;;;;;;;;;;;4.91;74.42;98842.22;109595;1253;72675;-67
2024/02/03 01:37:01;;;;;;;;;;;;;;;4.94;74.21;98838.19;109579;1254;60912;-67
2024/02/03 01:39:29;;;;;;;;;;;;;;;4.92;74.03;98831.64;109618;1253;59072;-67
2024/02/03 01:41:56;;;;;;;;;;;;;;;5.20;72.45;98821.05;109558;1252;73681;-67
2024/02/03 01:44:24;;;;;;;;;;;;;;;5.10;72.74;98807.01;109575;1252;66630;-67
2024/02/03 01:46:52;;;;;;;;;;;;;;;5.13;72.49;98804.09;109498;1253;72630;-67
2024/02/03 01:49:19;;;;;;;;;;;;;;;5.18;72.05;98803.29;109273;1255;60795;-68
2024/02/03 01:51:47;;;;;;;;;;;;;;;5.07;72.43;98799.30;109164;1255;60407;-66
2024/02/03 01:54:14;;;;;;;;;;;;;;;5.04;72.53;98803.81;109323;1255;73998;-66
2024/02/03 01:56:42;;;;;;;;;;;;;;;4.94;73.16;98807.86;109312;1256;69200;-67
2024/02/03 01:59:09;;;;;;;;;;;;;;;4.89;73.53;98800.27;109137;1255;73613;-67
2024/02/03 02:01:37;;;;;;;;;;;;;;;4.60;75.19;98790.93;109284;1256;61149;-66
2024/02/03 02:04:05;;;;;;;;;;;;;;;5.03;73.55;98798.16;109324;1255;58937;-67
2024/02/03 02:06:32;;;;;;;;;;;;;;;5.07;72.83;98800.16;109081;1256;72825;-67
2024/02/03 02:09:00;;;;;;;;;;;;;;;5.07;72.83;98794.50;109308;1256;70872;-67
2024/02/03 02:11:28;;;;;;;;;;;;;;;5.08;72.52;98785.65;109296;1255;72698;-67
2024/02/03 02:13:56;;;;;;;;;;;;;;;5.14;72.42;98778.20;109092;1256;62291;-67
2024/02/03 02:16:24;;;;;;;;;;;;;;;5.02;72.97;98779.98;109188;1255;58988;-67
2024/02/03 02:18:52;;;;;;;;;;;;;;;4.93;73.17;98776.46;109367;1256;75946;-67
2024/02/03 02:21:20;;;;;;;;;;;;;;;4.79;74.84;98771.55;109532;1252;67710;-67
2024/02/03 02:23:48;;;;;;;;;;;;;;;4.85;74.91;98764.23;109383;1252;72210;-67
2024/02/03 02:26:15;;;;;;;;;;;;;;;4.84;74.97;98756.92;109558;1253;61827;-67
2024/02/03 02:28:43;;;;;;;;;;;;;;;4.99;74.72;98757.48;109600;1253;59685;-67
2024/02/03 02:31:11;;;;;;;;;;;;;;;4.96;74.93;98748.55;109605;1253;75056;-67
2024/02/03 02:33:38;;;;;;;;;;;;;;;5.07;74.72;98741.94;109641;1253;67732;-67
2024/02/03 02:36:06;;;;;;;;;;;;;;;4.83;75.74;98733.46;109320;1253;72901;-63
2024/02/03 02:38:34;;;;;;;;;;;;;;;4.66;77.14;98727.34;109665;1253;61019;-67
2024/02/03 02:41:01;;;;;;;;;;;;;;;4.80;76.86;98732.70;109599;1253;59897;-66
2024/02/03 02:43:29;;;;;;;;;;;;;;;4.79;77.47;98729.23;109625;1253;76923;-66
2024/02/03 02:45:57;;;;;;;;;;;;;;;4.72;78.34;98728.98;109607;1252;68955;-66
2024/02/03 02:48:24;;;;;;;;;;;;;;;5.06;77.29;98731.55;109632;1251;72764;-66
2024/02/03 02:50:52;;;;;;;;;;;;;;;5.08;76.90;98726.05;109552;1251;61825;-66
2024/02/03 02:53:19;;;;;;;;;;;;;;;4.90;78.44;98721.84;109572;1251;60858;-67
2024/02/03 02:55:47;;;;;;;;;;;;;;;4.76;79.33;98710.33;109661;1251;74454;-66
2024/02/03 02:58:15;;;;;;;;;;;;;;;4.85;79.70;98697.39;109555;1253;68503;-67
2024/02/03 03:00:43;;;;;;;;;;;;;;;4.67;81.27;98687.79;109469;1254;75056;-67
2024/02/03 03:03:10;;;;;;;;;;;;;;;4.63;82.47;98696.05;109189;1254;61324;-67
2024/02/03 03:05:38;;;;;;;;;;;;;;;4.62;83.28;98696.41;109466;1253;59881;-68
2024/02/03 03:08:06;;;;;;;;;;;;;;;4.42;85.29;98685.59;109444;1254;75634;-68
2024/02/03 03:10:33;;;;;;;;;;;;;;;4.53;85.86;98679.60;109182;1254;69193;-67
2024/02/03 03:13:01;;;;;;;;;;;;;;;4.48;86.96;98678.00;109439;1253;74007;-68
2024/02/03 03:15:28;;;;;;;;;;;;;;;4.45;87.96;98676.36;109425;1254;62505;-68
2024/02/03 03:17:56;;;;;;;;;;;;;;;4.23;90.24;98662.30;109502;1253;59378;-67
2024/02/03 03:20:23;;;;;;;;;;;;;;;4.41;90.66;98656.88;109442;1254;73077;-68
2024/02/03 03:22:51;;;;;;;;;;;;;;;4.48;90.53;98650.63;109554;1253;71011;-67
2024/02/03 03:25:19;;;;;;;;;;;;;;;4.40;91.13;98638.41;109448;1253;72643;-67
2024/02/03 03:27:46;;;;;;;;;;;;;;;4.18;93.11;98627.67;109516;1253;58939;-68
2024/02/03 03:30:14;;;;;;;;;;;;;;;4.45;92.79;98638.23;109559;1251;58985;-67
2024/02/03 03:32:41;;;;;;;;;;;;;;;4.46;93.03;98630.98;109634;1251;74809;-67
2024/02/03 03:35:09;;;;;;;;;;;;;;;4.66;91.78;98619.47;109579;1251;68135;-69
2024/02/03 03:37:36;;;;;;;;;;;;;;;4.70;91.79;98601.08;109599;1251;74063;-67
2024/02/03 03:40:04;;;;;;;;;;;;;;;4.42;92.53;98590.09;109601;1251;60238;-65
2024/02/03 03:42:32;;;;;;;;;;;;;;;4.44;93.16;98583.92;109658;1251;59364;-67
2024/02/03 03:44:59;;;;;;;;;;;;;;;4.42;93.41;98578.25;109611;1252;74098;-65
2024/02/03 03:47:27;;;;;;;;;;;;;;;4.15;93.97;98569.85;109544;1252;68641;-68
2024/02/03 03:49:55;;;;;;;;;;;;;;;3.33;99.67;98559.97;109615;1252;71414;-69
2024/02/03 03:52:22;;;;;;;;;;;;;;;3.90;98.38;98553.99;109338;1256;60824;-69
2024/02/03 03:54:50;;;;;;;;;;;;;;;4.40;94.94;98549.09;109608;1252;60853;-68
2024/02/03 03:57:17;;;;;;;;;;;;;;;4.11;96.16;98525.33;109590;1253;74714;-69
2024/02/03 03:59:45;;;;;;;;;;;;;;;4.22;95.10;98514.45;109592;1252;68917;-69
2024/02/03 04:02:14;;;;;;;;;;;;;;;4.33;95.18;98517.30;109559;1251;70434;-68
2024/02/03 04:04:42;;;;;;;;;;;;;;;4.26;94.96;98510.69;109596;1252;60325;-69
2024/02/03 04:07:09;;;;;;;;;;;;;;;4.11;95.71;98503.70;109196;1254;59931;-70
2024/02/03 04:09:37;;;;;;;;;;;;;;;4.02;96.69;98502.34;109355;1254;74718;-69
2024/02/03 04:12:04;;;;;;;;;;;;;;;4.05;96.54;98497.38;109389;1254;68984;-69
2024/02/03 04:14:32;;;;;;;;;;;;;;;3.81;98.23;98503.92;109317;1254;71284;-69
2024/02/03 04:16:59;;;;;;;;;;;;;;;4.00;98.11;98502.39;109412;1256;59557;-68
2024/02/03 04:19:27;;;;;;;;;;;;;;;4.04;96.88;98494.92;109102;1254;60078;-68
2024/02/03 04:21:54;;;;;;;;;;;;;;;3.91;98.34;98487.89;109426;1254;76117;-69
2024/02/03 04:24:22;;;;;;;;;;;;;;;3.96;98.47;98489.27;109475;1254;66811;-68
2024/02/03 04:26:49;;;;;;;;;;;;;;;3.47;99.52;98484.08;109388;1254;71686;-68
2024/02/03 04:29:17;;;;;;;;;;;;;;;3.45;100.00;98474.92;109400;1254;62250;-66
2024/02/03 04:31:44;;;;;;;;;;;;;;;3.55;100.00;98470.09;109396;1254;58911;-66
2024/02/03 04:34:12;;;;;;;;;;;;;;;3.79;99.99;98463.25;109341;1254;74899;-67
2024/02/03 04:36:40;;;;;;;;;;;;;;;3.90;100.00;98459.88;109338;1254;71044;-67
2024/02/03 04:39:08;;;;;;;;;;;;;;;3.61;100.00;98438.90;109596;1251;72486;-67
2024/02/03 04:41:36;;;;;;;;;;;;;;;3.57;100.00;98426.77;109659;1254;61179;-68
2024/02/03 04:44:03;;;;;;;;;;;;;;;3.73;100.00;98428.77;109622;1251;60174;-68
2024/02/03 04:46:31;;;;;;;;;;;;;;;3.72;100.00;98416.13;109610;1251;76882;-68
2024/02/03 04:48:59;;;;;;;;;;;;;;;3.82;100.00;98409.77;109622;1251;67295;-68
2024/02/03 04:51:29;;;;;;;;;;;;;;;3.73;100.00;98399.31;109589;1251;70766;-68
2024/02/03 04:53:56;;;;;;;;;;;;;;;3.83;100.00;98401.30;109617;1253;60994;-70
2024/02/03 04:56:24;;;;;;;;;;;;;;;4.06;100.00;98392.58;109605;1251;59858;-69
2024/02/03 04:58:51;;;;;;;;;;;;;;;3.97;100.00;98383.30;109485;1251;75730;-69
2024/02/03 05:01:19;;;;;;;;;;;;;;;3.88;100.00;98374.69;109605;1251;67067;-70
2024/02/03 05:06:55;;;;;;;;;;;;;;;4.22;100.00;98359.91;103964;1293;598605;-67
2024/02/03 05:09:23;;;;;;;;;;;;;;;4.12;100.00;98356.56;104847;1271;62085;-73
2024/02/03 05:11:51;;;;;;;;;;;;;;;4.08;100.00;98346.52;104834;1266;61492;-68
2024/02/03 05:14:19;;;;;;;;;;;;;;;3.89;100.00;98353.20;104854;1272;72562;-67
2024/02/03 05:16:46;;;;;;;;;;;;;;;4.00;100.00;98348.40;104867;1267;69294;-68
2024/02/03 05:19:15;;;;;;;;;;;;;;;3.95;100.00;98345.33;104831;1272;75126;-65
2024/02/03 05:21:45;;;;;;;;;;;;;;;4.08;100.00;98344.02;104786;1264;108021;-68
2024/02/03 05:24:12;;;;;;;;;;;;;;;3.99;100.00;98340.36;104846;1274;59481;-67
2024/02/03 05:26:40;;;;;;;;;;;;;;;3.92;100.00;98329.56;104964;1266;74134;-68
2024/02/03 05:29:08;;;;;;;;;;;;;;;3.88;100.00;98330.89;105017;1263;68766;-68
2024/02/03 05:31:35;;;;;;;;;;;;;;;4.07;100.00;98318.60;104687;1269;73971;-69
2024/02/03 05:34:03;;;;;;;;;;;;;;;3.68;100.00;98326.30;104993;1267;60363;-68
2024/02/03 05:36:31;;;;;;;;;;;;;;;3.90;100.00;98321.05;105193;1266;60043;-67
2024/02/03 05:38:58;;;;;;;;;;;;;;;4.10;100.00;98325.08;105556;1257;73720;-67
2024/02/03 05:41:26;;;;;;;;;;;;;;;4.11;100.00;98319.36;105586;1257;68123;-69
2024/02/03 05:43:54;;;;;;;;;;;;;;;4.03;100.00;98317.64;105592;1260;71139;-69
2024/02/03 05:46:21;;;;;;;;;;;;;;;4.19;100.00;98322.35;105605;1263;60476;-71
2024/02/03 05:48:49;;;;;;;;;;;;;;;4.29;100.00;98321.23;105515;1258;60854;-67
2024/02/03 05:51:19;;;;;;;;;;;;;;;4.35;100.00;98322.91;105451;1257;72126;-66
2024/02/03 05:53:46;;;;;;;;;;;;;;;4.45;100.00;98328.27;105578;1262;67865;-67
2024/02/03 05:56:14;;;;;;;;;;;;;;;4.49;99.97;98328.60;105569;1257;74531;-66
2024/02/03 05:58:44;;;;;;;;;;;;;;;4.56;99.99;98322.58;105520;1257;62079;-65
2024/02/03 06:01:11;;;;;;;;;;;;;;;4.34;100.00;98316.52;105559;1258;61495;-69
2024/02/03 06:03:39;;;;;;;;;;;;;;;4.21;100.00;98310.33;105245;1256;72234;-67
2024/02/03 06:06:07;;;;;;;;;;;;;;;4.23;100.00;98304.52;105578;1257;69353;-67
2024/02/03 06:08:52;;;;;;;;;;;;;;;4.63;99.87;98295.77;105216;1260;72246;-68
2024/02/03 06:11:20;;;;;;;;;;;;;;;4.45;100.00;98288.30;105523;1261;62307;-67
2024/02/03 06:13:47;;;;;;;;;;;;;;;4.60;99.75;98286.59;105603;1263;59536;-68
2024/02/03 06:16:15;;;;;;;;;;;;;;;4.66;99.86;98285.87;105406;1257;72357;-69
2024/02/03 06:18:42;;;;;;;;;;;;;;;4.62;99.64;98281.84;105464;1257;69888;-68
2024/02/03 06:21:13;;;;;;;;;;;;;;;4.42;100.00;98277.06;105346;1263;72353;-70
2024/02/03 06:23:41;;;;;;;;;;;;;;;4.53;100.00;98270.55;105238;1262;59698;-66
2024/02/03 06:26:09;;;;;;;;;;;;;;;4.57;100.00;98278.91;105508;1257;62554;-65
2024/02/03 06:28:37;;;;;;;;;;;;;;;4.75;99.72;98278.92;105622;1257;72848;-66
2024/02/03 06:31:05;;;;;;;;;;;;;;;4.79;99.56;98266.20;105178;1265;68817;-64
2024/02/03 06:33:32;;;;;;;;;;;;;;;4.66;98.81;98262.02;105427;1262;72640;-63
2024/02/03 06:36:00;;;;;;;;;;;;;;;4.03;100.00;98257.38;105518;1262;62593;-63
2024/02/03 06:38:28;;;;;;;;;;;;;;;4.10;100.00;98256.46;105561;1257;61179;-62
2024/02/03 06:40:56;;;;;;;;;;;;;;;4.34;100.00;98262.34;105498;1257;72414;-64
2024/02/03 06:43:24;;;;;;;;;;;;;;;4.20;100.00;98243.80;105542;1262;66637;-64
2024/02/03 06:45:53;;;;;;;;;;;;;;;4.00;100.00;98241.08;105327;1260;74707;-66
2024/02/03 06:48:23;;;;;;;;;;;;;;;4.33;100.00;98247.82;105347;1257;61645;-63
2024/02/03 06:50:53;;;;;;;;;;;;;;;4.14;100.00;98222.58;105396;1259;60971;-66
2024/02/03 06:53:21;;;;;;;;;;;;;;;3.78;100.00;98218.29;105551;1260;74658;-61
2024/02/03 06:55:48;;;;;;;;;;;;;;;3.83;100.00;98215.92;105558;1260;70688;-63
2024/02/03 06:58:16;;;;;;;;;;;;;;;3.56;100.00;98213.00;105466;1260;74009;-64
2024/02/03 07:00:44;;;;;;;;;;;;;;;3.49;100.00;98207.44;105553;1260;63299;-66
2024/02/03 07:03:12;;;;;;;;;;;;;;;3.57;100.00;98209.59;105425;1260;61206;-63
2024/02/03 07:05:40;;;;;;;;;;;;;;;3.77;100.00;98222.52;105188;1265;73115;-68
2024/02/03 07:08:07;;;;;;;;;;;;;;;3.97;100.00;98219.80;105466;1262;70330;-67
2024/02/03 07:10:35;;;;;;;;;;;;;;;4.01;100.00;98226.59;105453;1258;75574;-63
2024/02/03 07:13:03;;;;;;;;;;;;;;;3.92;100.00;98216.10;105553;1259;62654;-66
2024/02/03 07:15:30;;;;;;;;;;;;;;;3.91;100.00;98204.21;105234;1265;60293;-65
2024/02/03 07:17:58;;;;;;;;;;;;;;;3.86;100.00;98213.54;105584;1257;73580;-66
2024/02/03 07:20:26;;;;;;;;;;;;;;;3.99;100.00;98215.41;105186;1267;70176;-64
2024/02/03 07:22:53;;;;;;;;;;;;;;;3.98;100.00;98204.79;105356;1257;75641;-65
2024/02/03 07:25:21;;;;;;;;;;;;;;;4.18;100.00;98196.08;105416;1258;62438;-64
2024/02/03 07:27:50;;;;;;;;;;;;;;;4.14;100.00;98180.25;105238;1262;59643;-62
2024/02/03 07:30:17;;;;;;;;;;;;;;;4.32;100.00;98190.52;105517;1257;72956;-68
2024/02/03 07:32:45;;;;;;;;;;;;;;;4.50;100.00;98186.51;105784;1263;68901;-70
2024/02/03 07:35:13;;;;;;;;;;;;;;;4.45;100.00;98176.97;105488;1258;73751;-70
2024/02/03 07:37:41;;;;;;;;;;;;;;;4.48;100.00;98171.44;105589;1262;62309;-64
2024/02/03 07:40:09;;;;;;;;;;;;;;;4.61;100.00;98168.50;105580;1262;62546;-67
2024/02/03 07:42:36;;;;;;;;;;;;;;;4.57;100.00;98176.65;105142;1265;73572;-64
2024/02/03 07:45:04;;;;;;;;;;;;;;;4.50;100.00;98169.91;105224;1261;69397;-63
2024/02/03 07:47:33;;;;;;;;;;;;;;;4.50;100.00;98172.80;105578;1259;71676;-67
2024/02/03 07:50:01;;;;;;;;;;;;;;;4.52;100.00;98167.97;105562;1261;61300;-68
2024/02/03 07:52:28;;;;;;;;;;;;;;;4.46;100.00;98160.47;105535;1263;59870;-63
2024/02/03 07:54:56;;;;;;;;;;;;;;;4.44;100.00;98154.50;105555;1257;72657;-64
2024/02/03 07:57:24;;;;;;;;;;;;;;;4.48;100.00;98149.61;105557;1262;69393;-65
2024/02/03 07:59:51;;;;;;;;;;;;;;;4.53;100.00;98149.19;105562;1261;73006;-62
2024/02/03 08:02:19;;;;;;;;;;;;;;;4.52;100.00;98142.47;105530;1260;61876;-66
2024/02/03 08:04:47;;;;;;;;;;;;;;;4.68;100.00;98141.15;105287;1257;60892;-63
2024/02/03 08:07:15;;;;;;;;;;;;;;;4.72;100.00;98147.67;105449;1260;72540;-66
2024/02/03 08:09:42;;;;;;;;;;;;;;;4.46;100.00;98141.02;105462;1262;68867;-64
2024/02/03 08:12:10;;;;;;;;;;;;;;;4.66;100.00;98151.35;105429;1260;72624;-61
2024/02/03 08:14:38;;;;;;;;;;;;;;;4.90;100.00;98158.60;105234;1264;62295;-65
2024/02/03 08:17:06;;;;;;;;;;;;;;;4.65;100.00;98154.04;105519;1263;59673;-66
2024/02/03 08:19:33;;;;;;;;;;;;;;;4.73;100.00;98138.17;105268;1258;75227;-67
2024/02/03 08:22:01;;;;;;;;;;;;;;;4.62;100.00;98145.98;105436;1258;71276;-63
2024/02/03 08:24:28;;;;;;;;;;;;;;;4.71;100.00;98136.19;105383;1261;72020;-62
2024/02/03 08:26:57;;;;;;;;;;;;;;;4.59;100.00;98125.00;105316;1257;63744;-66
2024/02/03 08:29:25;;;;;;;;;;;;;;;4.91;100.00;98133.58;105243;1262;59769;-66
2024/02/03 08:31:52;;;;;;;;;;;;;;;4.85;100.00;98121.80;105279;1260;74654;-62
2024/02/03 08:34:20;;;;;;;;;;;;;;;4.98;100.00;98110.45;105437;1263;68500;-63
2024/02/03 08:36:48;;;;;;;;;;;;;;;5.04;100.00;98107.08;105481;1260;72180;-65
2024/02/03 08:39:16;;;;;;;;;;;;;;;5.02;100.00;98101.38;105544;1261;59829;-65
2024/02/03 08:41:47;;;;;;;;;;;;;;;5.02;100.00;98111.06;105541;1263;60809;-65
2024/02/03 08:44:15;;;;;;;;;;;;;;;5.25;100.00;98115.25;105356;1262;74077;-65
2024/02/03 08:46:42;;;;;;;;;;;;;;;5.20;100.00;98114.36;105187;1262;69256;-62
2024/02/03 08:49:10;;;;;;;;;;;;;;;5.14;100.00;98112.34;105321;1262;72494;-63
2024/02/03 08:51:38;;;;;;;;;;;;;;;5.35;100.00;98114.16;109073;1257;62298;-66
2024/02/03 08:54:08;;;;;;;;;;;;;;;5.33;100.00;98099.88;109110;1257;60420;-66
2024/02/03 08:56:36;;;;;;;;;;;;;;;5.24;100.00;98104.34;109063;1257;74638;-68
2024/02/03 08:59:03;;;;;;;;;;;;;;;5.39;100.00;98107.11;109076;1257;70848;-68
2024/02/03 09:01:31;;;;;;;;;;;;;;;5.53;100.00;98105.98;109095;1257;75028;-67
2024/02/03 09:03:59;;;;;;;;;;;;;;;5.62;100.00;98099.48;109042;1259;63525;-67
2024/02/03 09:06:26;;;;;;;;;;;;;;;5.52;100.00;98090.23;109006;1257;61434;-66
2024/02/03 09:08:54;;;;;;;;;;;;;;;5.45;100.00;98083.95;109173;1257;73872;-66
2024/02/03 09:11:22;;;;;;;;;;;;;;;5.66;100.00;98074.81;109223;1256;69292;-66
2024/02/03 09:13:49;;;;;;;;;;;;;;;5.51;100.00;98072.16;109211;1257;74096;-66
2024/02/03 09:16:17;;;;;;;;;;;;;;;5.65;100.00;98081.61;109161;1257;63385;-67
2024/02/03 09:18:44;;;;;;;;;;;;;;;5.63;100.00;98079.38;108985;1257;60983;-66
2024/02/03 09:21:12;;;;;;;;;;;;;;;5.49;100.00;98073.64;109250;1257;74018;-67
2024/02/03 09:23:40;;;;;;;;;;;;;;;5.69;100.00;98073.54;109231;1256;69967;-66
2024/02/03 09:26:08;;;;;;;;;;;;;;;5.83;100.00;98075.21;109216;1257;72683;-67
2024/02/03 09:28:36;;;;;;;;;;;;;;;5.69;100.00;98065.88;109206;1257;62873;-69
2024/02/03 09:31:05;;;;;;;;;;;;;;;5.60;100.00;98065.25;109143;1257;62354;-69
2024/02/03 09:33:33;;;;;;;;;;;;;;;5.62;100.00;98071.43;109129;1257;72568;-64
2024/02/03 09:36:03;;;;;;;;;;;;;;;5.62;100.00;98071.91;109132;1257;67350;-63
2024/02/03 09:38:31;;;;;;;;;;;;;;;5.88;100.00;98065.02;109049;1257;72771;-63
2024/02/03 09:40:58;;;;;;;;;;;;;;;5.90;100.00;98059.71;109115;1258;59686;-64
2024/02/03 09:43:26;;;;;;;;;;;;;;;5.61;100.00;98050.71;109038;1257;60345;-64
2024/02/03 09:45:53;;;;;;;;;;;;;;;6.00;100.00;98052.04;108966;1257;75002;-62
2024/02/03 09:48:24;;;;;;;;;;;;;;;6.05;100.00;98048.23;108976;1257;68496;-66
2024/02/03 09:50:51;;;;;;;;;;;;;;;6.30;100.00;98045.48;109115;1259;71727;-66
2024/02/03 09:53:19;;;;;;;;;;;;;;;6.22;100.00;98040.88;109129;1257;62251;-66
2024/02/03 09:55:47;;;;;;;;;;;;;;;6.29;100.00;98036.16;109099;1257;60385;-66
2024/02/03 09:58:14;;;;;;;;;;;;;;;6.28;100.00;98032.21;108970;1258;73971;-66
2024/02/03 10:00:41;;;;;;;;;;;;;;;6.23;100.00;98022.02;109132;1257;68929;-67
2024/02/03 10:03:16;;;;;;;;;;;;;;;6.45;100.00;98026.80;109113;1257;73395;-66
2024/02/03 10:05:43;;;;;;;;;;;;;;;6.53;100.00;98024.06;109079;1262;60438;-66
2024/02/03 10:08:11;;;;;;;;;;;;;;;6.43;100.00;98012.05;109077;1257;61430;-64
2024/02/03 10:10:39;;;;;;;;;;;;;;;6.71;100.00;98015.65;109183;1257;73978;-66
2024/02/03 10:13:09;;;;;;;;;;;;;;;6.95;100.00;98016.23;109253;1256;67059;-65
2024/02/03 10:15:37;;;;;;;;;;;;;;;6.84;100.00;98000.30;109245;1257;74945;-66
2024/02/03 10:18:05;;;;;;;;;;;;;;;6.63;100.00;98001.09;109053;1257;63268;-67
2024/02/03 10:20:35;;;;;;;;;;;;;;;6.77;100.00;97988.30;109237;1257;61006;-65
2024/02/03 10:23:03;;;;;;;;;;;;;;;6.77;100.00;97979.75;109139;1257;75959;-65
2024/02/03 10:25:31;;;;;;;;;;;;;;;7.19;100.00;97985.64;109164;1257;70939;-64
2024/02/03 10:28:03;;;;;;;;;;;;;;;7.32;100.00;97980.17;109239;1257;72409;-65
2024/02/03 10:30:31;;;;;;;;;;;;;;;7.39;100.00;97970.27;109143;1258;60476;-66
2024/02/03 10:32:59;;;;;;;;;;;;;;;7.42;100.00;97960.77;109258;1257;62070;-67
2024/02/03 10:35:28;;;;;;;;;;;;;;;7.29;100.00;97958.88;109248;1257;74797;-66
2024/02/03 10:37:55;;;;;;;;;;;;;;;7.51;100.00;97963.03;109217;1260;67213;-67
2024/02/03 10:40:33;;;;;;;;;;;;;;;7.56;100.00;97967.77;109256;1257;70936;-66
2024/02/03 10:43:01;;;;;;;;;;;;;;;7.43;100.00;97962.84;109189;1257;60059;-63
2024/02/03 10:45:30;;;;;;;;;;;;;;;7.70;100.00;97950.31;109215;1256;59042;-64
2024/02/03 10:48:01;;;;;;;;;;;;;;;7.75;100.00;97953.11;109123;1258;75233;-65
2024/02/03 10:50:36;;;;;;;;;;;;;;;7.76;100.00;97940.50;109244;1257;69296;-65
2024/02/03 10:53:05;;;;;;;;;;;;;;;7.73;100.00;97938.91;109078;1257;74876;-62
2024/02/03 10:55:34;;;;;;;;;;;;;;;7.86;100.00;97936.70;109092;1257;60058;-66
2024/02/03 10:58:02;;;;;;;;;;;;;;;7.76;100.00;97935.95;109123;1257;59147;-63
2024/02/03 11:00:29;;;;;;;;;;;;;;;7.82;100.00;97937.86;108912;1257;75240;-64
2024/02/03 11:03:00;;;;;;;;;;;;;;;7.77;100.00;97922.59;109021;1257;68382;-64
2024/02/03 11:05:27;;;;;;;;;;;;;;;7.93;100.00;97933.41;108993;1264;74900;-65
2024/02/03 11:08:03;;;;;;;;;;;;;;;7.89;100.00;97922.86;109124;1257;62008;-65
2024/02/03 11:10:30;;;;;;;;;;;;;;;7.84;100.00;97924.97;109144;1257;58999;-64
2024/02/03 11:13:14;;;;;;;;;;;;;;;7.62;100.00;97911.55;109117;1257;74278;-66
2024/02/03 11:15:42;;;;;;;;;;;;;;;7.66;100.00;97919.83;109117;1258;70613;-66
2024/02/03 11:18:11;;;;;;;;;;;;;;;7.65;100.00;97918.13;109135;1257;73804;-66
2024/02/03 11:20:42;;;;;;;;;;;;;;;7.60;100.00;97913.81;109097;1257;60330;-66
2024/02/03 11:23:13;;;;;;;;;;;;;;;7.64;100.00;97910.52;109111;1257;60307;-64
2024/02/03 11:25:44;;;;;;;;;;;;;;;7.75;100.00;97912.36;109087;1260;73028;-65
2024/02/03 11:28:12;;;;;;;;;;;;;;;7.76;100.00;97914.70;109030;1257;69885;-63
2024/02/03 11:30:40;;;;;;;;;;;;;;;7.80;100.00;97905.54;109090;1257;75006;-65
2024/02/03 11:33:08;;;;;;;;;;;;;;;7.65;100.00;97906.52;109092;1260;61203;-64
2024/02/03 11:35:35;;;;;;;;;;;;;;;7.80;100.00;97908.16;108924;1257;60294;-64
2024/02/03 11:38:06;;;;;;;;;;;;;;;7.66;100.00;97897.17;109127;1257;73842;-64
2024/02/03 11:40:43;;;;;;;;;;;;;;;7.65;100.00;97900.91;109122;1257;70141;-64
2024/02/03 11:43:14;;;;;;;;;;;;;;;7.72;100.00;97901.79;109115;1257;74850;-65
2024/02/03 11:45:48;;;;;;;;;;;;;;;7.81;100.00;97899.29;109097;1260;59741;-65
2024/02/03 11:48:16;;;;;;;;;;;;;;;7.74;100.00;97900.72;109120;1257;60323;-65
2024/02/03 11:50:44;;;;;;;;;;;;;;;7.65;100.00;97892.91;109150;1257;74088;-64
2024/02/03 11:53:24;;;;;;;;;;;;;;;7.79;100.00;97898.23;109220;1257;68398;-65
2024/02/03 11:55:56;;;;;;;;;;;;;;;8.01;100.00;97899.28;109195;1257;72739;-64
2024/02/03 11:58:24;;;;;;;;;;;;;;;7.91;100.00;97900.83;109211;1258;61952;-65
2024/02/03 12:01:07;;;;;;;;;;;;;;;7.91;100.00;97889.45;109122;1257;60888;-65
2024/02/03 12:03:35;;;;;;;;;;;;;;;8.05;100.00;97893.58;109050;1257;73943;-65
2024/02/03 12:06:04;;;;;;;;;;;;;;;8.03;100.00;97893.97;109109;1257;67624;-66
2024/02/03 12:08:32;;;;;;;;;;;;;;;7.95;100.00;97883.70;108911;1257;74817;-65
2024/02/03 12:10:59;;;;;;;;;;;;;;;8.05;100.00;97877.88;108924;1260;62147;-66
2024/02/03 12:13:33;;;;;;;;;;;;;;;7.97;100.00;97881.19;109067;1260;60055;-65
2024/02/03 12:16:00;;;;;;;;;;;;;;;8.06;100.00;97890.22;108860;1257;74960;-67
2024/02/03 12:18:28;;;;;;;;;;;;;;;8.17;100.00;97898.84;109025;1257;67356;-65
2024/02/03 12:20:56;;;;;;;;;;;;;;;8.19;100.00;97904.48;109099;1257;72378;-63
2024/02/03 12:23:23;;;;;;;;;;;;;;;8.29;100.00;97909.14;108982;1257;61251;-67
2024/02/03 12:25:51;;;;;;;;;;;;;;;8.20;100.00;97906.05;109095;1257;62122;-62
2024/02/03 12:28:18;;;;;;;;;;;;;;;8.04;100.00;97906.37;109073;1257;74183;-64
2024/02/03 12:30:56;;;;;;;;;;;;;;;8.20;100.00;97907.38;108946;1257;70778;-64
2024/02/03 12:33:24;;;;;;;;;;;;;;;8.25;100.00;97907.98;108750;1257;71472;-63
2024/02/03 12:35:52;;;;;;;;;;;;;;;8.18;100.00;97909.05;109044;1260;61969;-65
2024/02/03 12:38:21;;;;;;;;;;;;;;;8.10;100.00;97906.31;109082;1257;60372;-64
2024/02/03 12:40:49;;;;;;;;;;;;;;;8.12;100.00;97905.56;109067;1259;73995;-64
2024/02/03 12:43:16;;;;;;;;;;;;;;;8.07;100.00;97909.13;109118;1254;69402;-65
2024/02/03 12:45:44;;;;;;;;;;;;;;;8.16;100.00;97906.29;109131;1254;74921;-63
2024/02/03 12:48:12;;;;;;;;;;;;;;;8.19;100.00;97904.71;109346;1255;61996;-63